createdAt,value
2018-06-20T00:02:28.206Z,20.40
2018-06-20T00:04:57.085Z,20.60
2018-06-20T00:07:26.075Z,20.60
2018-06-20T00:09:54.985Z,20.60
2018-06-20T00:12:23.913Z,20.60
2018-06-20T00:14:52.815Z,20.50
2018-06-20T00:19:50.154Z,20.50
2018-06-20T00:22:19.061Z,20.60
2018-06-20T00:24:48.171Z,20.50
2018-06-20T00:29:45.556Z,20.30
2018-06-20T00:32:14.468Z,20.10
2018-06-20T00:34:43.357Z,20.10
2018-06-20T00:37:12.490Z,19.90
2018-06-20T00:39:41.439Z,19.80
2018-06-20T00:42:10.344Z,19.80
2018-06-20T00:44:39.223Z,19.90
2018-06-20T00:47:08.126Z,20.00
2018-06-20T00:49:37.123Z,20.10
2018-06-20T00:52:06.029Z,20.10
2018-06-20T00:54:34.988Z,20.10
2018-06-20T00:57:03.937Z,20.10
2018-06-20T00:59:33.016Z,20.10
2018-06-20T01:02:01.911Z,20.00
2018-06-20T01:04:30.838Z,19.90
2018-06-20T01:06:59.797Z,19.90
2018-06-20T01:09:28.860Z,19.90
2018-06-20T01:11:57.854Z,19.90
2018-06-20T01:14:26.806Z,19.80
2018-06-20T01:16:55.773Z,19.60
2018-06-20T01:19:24.685Z,19.60
2018-06-20T01:21:53.599Z,19.50
2018-06-20T01:24:22.507Z,19.50
2018-06-20T01:26:51.419Z,19.60
2018-06-20T01:29:20.334Z,19.60
2018-06-20T01:34:17.808Z,19.40
2018-06-20T01:39:15.386Z,19.20
2018-06-20T01:41:44.363Z,19.20
2018-06-20T01:44:13.246Z,19.10
2018-06-20T01:46:42.170Z,19.10
2018-06-20T01:49:11.126Z,19.10
2018-06-20T01:51:40.036Z,19.10
2018-06-20T01:59:05.916Z,19.00
2018-06-20T02:01:34.815Z,19.00
2018-06-20T02:04:03.719Z,19.00
2018-06-20T02:06:32.628Z,19.10
2018-06-20T02:09:01.547Z,19.20
2018-06-20T02:14:00.084Z,19.40
2018-06-20T02:16:28.990Z,19.00
2018-06-20T02:18:57.950Z,19.00
2018-06-20T02:21:26.900Z,19.00
2018-06-20T02:23:55.805Z,18.90
2018-06-20T02:28:53.295Z,19.00
2018-06-20T02:31:22.301Z,18.90
2018-06-20T02:33:51.263Z,18.90
2018-06-20T02:39:08.304Z,18.90
2018-06-20T02:44:06.368Z,18.60
2018-06-20T02:46:35.303Z,18.70
2018-06-20T02:49:04.292Z,18.60
2018-06-20T02:51:33.203Z,18.50
2018-06-20T02:54:02.113Z,18.60
2018-06-20T02:56:31.111Z,18.70
2018-06-20T02:59:00.093Z,18.70
2018-06-20T03:01:29.101Z,18.70
2018-06-20T03:03:58.030Z,18.70
2018-06-20T03:06:26.940Z,18.90
2018-06-20T03:09:07.892Z,18.90
2018-06-20T03:11:36.763Z,18.80
2018-06-20T03:14:05.669Z,18.70
2018-06-20T03:19:03.065Z,18.50
2018-06-20T03:21:32.020Z,18.60
2018-06-20T03:26:29.495Z,18.30
2018-06-20T03:31:27.103Z,18.40
2018-06-20T03:33:56.082Z,18.20
2018-06-20T03:36:25.005Z,18.10
2018-06-20T03:38:53.933Z,18.10
2018-06-20T03:41:22.811Z,18.10
2018-06-20T03:43:51.701Z,18.20
2018-06-20T03:46:20.601Z,18.30
2018-06-20T03:48:49.529Z,18.20
2018-06-20T03:51:18.513Z,18.40
2018-06-20T03:53:47.424Z,18.30
2018-06-20T03:56:16.295Z,18.30
2018-06-20T03:58:45.195Z,18.30
2018-06-20T04:01:14.108Z,18.40
2018-06-20T04:03:43.084Z,18.40
2018-06-20T04:06:12.011Z,18.50
2018-06-20T04:08:40.909Z,18.20
2018-06-20T04:11:09.828Z,18.30
2018-06-20T04:18:44.659Z,17.90
2018-06-20T04:21:15.626Z,17.90
2018-06-20T04:26:13.679Z,17.80
2018-06-20T04:28:42.639Z,17.90
2018-06-20T04:31:11.667Z,17.70
2018-06-20T04:33:40.599Z,17.80
2018-06-20T04:36:09.509Z,17.70
2018-06-20T04:38:38.421Z,17.70
2018-06-20T04:41:07.374Z,17.80
2018-06-20T04:43:36.285Z,17.70
2018-06-20T04:46:05.208Z,17.70
2018-06-20T04:48:34.086Z,17.90
2018-06-20T04:51:02.991Z,17.80
2018-06-20T04:53:31.901Z,17.80
2018-06-20T04:56:00.802Z,17.70
2018-06-20T05:00:58.246Z,17.80
2018-06-20T05:03:27.202Z,17.80
2018-06-20T05:05:56.117Z,17.70
2018-06-20T05:08:25.041Z,17.80
2018-06-20T05:13:22.689Z,17.80
2018-06-20T05:15:51.628Z,17.70
2018-06-20T05:18:20.580Z,17.70
2018-06-20T05:20:49.463Z,17.80
2018-06-20T05:23:18.392Z,17.70
2018-06-20T05:25:47.275Z,17.70
2018-06-20T05:35:46.252Z,18.00
2018-06-20T05:38:15.580Z,18.10
2018-06-20T05:40:44.516Z,18.10
2018-06-20T05:43:13.689Z,18.20
2018-06-20T05:45:42.747Z,18.30
2018-06-20T05:48:11.672Z,18.30
2018-06-20T05:50:40.559Z,18.30
2018-06-20T05:53:09.487Z,18.40
2018-06-20T05:55:38.434Z,18.40
2018-06-20T05:58:07.332Z,18.40
2018-06-20T06:00:36.255Z,18.50
2018-06-20T06:03:05.129Z,18.50
2018-06-20T06:08:07.099Z,18.60
2018-06-20T06:13:07.906Z,18.60
2018-06-20T06:15:36.996Z,18.70
2018-06-20T06:18:06.037Z,18.60
2018-06-20T06:23:03.367Z,18.70
2018-06-20T06:25:32.291Z,18.70
2018-06-20T06:28:01.185Z,18.70
2018-06-20T06:30:30.124Z,18.80
2018-06-20T06:32:59.044Z,18.90
2018-06-20T06:35:27.965Z,18.90
2018-06-20T06:40:25.492Z,19.00
2018-06-20T06:42:54.374Z,19.20
2018-06-20T06:45:23.268Z,19.20
2018-06-20T06:47:52.189Z,19.20
2018-06-20T06:50:21.085Z,19.20
2018-06-20T06:52:49.981Z,19.30
2018-06-20T06:57:47.397Z,19.40
2018-06-20T07:00:16.323Z,19.40
2018-06-20T07:02:45.315Z,19.50
2018-06-20T07:05:14.700Z,19.50
2018-06-20T07:07:44.135Z,19.50
2018-06-20T07:10:13.031Z,19.60
2018-06-20T07:15:10.571Z,19.70
2018-06-20T07:17:39.564Z,19.80
2018-06-20T07:20:08.485Z,19.80
2018-06-20T07:22:37.380Z,19.90
2018-06-20T07:35:00.421Z,20.20
2018-06-20T07:37:29.465Z,20.30
2018-06-20T07:39:58.369Z,20.40
2018-06-20T07:42:27.353Z,20.50
2018-06-20T07:44:56.268Z,20.50
2018-06-20T07:49:53.583Z,20.60
2018-06-20T07:52:22.498Z,20.70
2018-06-20T07:54:51.431Z,20.80
2018-06-20T07:57:20.420Z,20.90
2018-06-20T07:59:54.638Z,21.10
2018-06-20T08:02:39.841Z,21.20
2018-06-20T08:06:12.734Z,21.30
2018-06-20T08:08:46.802Z,21.50
2018-06-20T08:13:54.735Z,21.70
2018-06-20T08:16:28.760Z,21.80
2018-06-20T08:19:02.911Z,21.80
2018-06-20T08:21:31.759Z,21.80
2018-06-20T08:24:00.625Z,21.90
2018-06-20T08:26:29.566Z,21.90
2018-06-20T08:28:58.542Z,22.00
2018-06-20T08:31:27.463Z,22.10
2018-06-20T08:33:56.360Z,22.20
2018-06-20T08:36:25.307Z,22.30
2018-06-20T08:38:54.197Z,22.40
2018-06-20T08:41:23.261Z,22.40
2018-06-20T08:43:52.338Z,22.50
2018-06-20T08:46:21.262Z,22.60
2018-06-20T08:48:50.162Z,22.70
2018-06-20T08:51:19.038Z,22.80
2018-06-20T08:53:47.999Z,22.80
2018-06-20T08:56:16.953Z,23.00
2018-06-20T08:58:45.942Z,23.10
2018-06-20T09:01:14.849Z,23.20
2018-06-20T09:03:44.379Z,23.20
2018-06-20T09:06:18.566Z,23.30
2018-06-20T09:08:52.647Z,23.30
2018-06-20T09:11:26.788Z,23.40
2018-06-20T09:14:00.900Z,23.30
2018-06-20T09:16:35.066Z,23.40
2018-06-20T09:19:09.236Z,23.50
2018-06-20T09:21:38.196Z,23.60
2018-06-20T09:24:07.121Z,23.70
2018-06-20T09:26:36.132Z,23.70
2018-06-20T09:31:33.900Z,23.90
2018-06-20T09:34:02.963Z,23.80
2018-06-20T09:36:31.896Z,23.90
2018-06-20T09:39:01.092Z,24.00
2018-06-20T09:41:30.476Z,24.10
2018-06-20T09:43:59.451Z,24.10
2018-06-20T09:46:28.333Z,24.10
2018-06-20T09:48:57.290Z,24.20
2018-06-20T09:51:26.243Z,24.30
2018-06-20T09:53:55.211Z,24.40
2018-06-20T09:56:24.190Z,24.40
2018-06-20T09:58:53.096Z,24.40
2018-06-20T10:01:27.290Z,24.50
2018-06-20T10:04:01.331Z,24.50
2018-06-20T10:06:35.507Z,24.70
2018-06-20T10:09:09.903Z,24.80
2018-06-20T10:14:13.443Z,24.80
2018-06-20T10:16:42.455Z,24.80
2018-06-20T10:19:11.404Z,24.90
2018-06-20T10:21:40.336Z,25.00
2018-06-20T10:24:09.242Z,25.10
2018-06-20T10:26:38.186Z,25.20
2018-06-20T10:29:07.192Z,25.20
2018-06-20T10:31:36.097Z,25.30
2018-06-20T10:34:05.206Z,25.40
2018-06-20T10:36:34.113Z,25.60
2018-06-20T10:39:03.110Z,25.60
2018-06-20T10:41:37.118Z,25.60
2018-06-20T10:44:11.339Z,25.60
2018-06-20T10:46:46.056Z,25.70
2018-06-20T10:49:16.503Z,25.70
2018-06-20T10:51:45.759Z,25.80
2018-06-20T10:54:14.766Z,25.90
2018-06-20T10:56:49.039Z,25.90
2018-06-20T10:59:23.018Z,26.10
2018-06-20T11:01:57.139Z,26.10
2018-06-20T11:09:38.912Z,26.30
2018-06-20T11:12:13.054Z,26.30
2018-06-20T11:14:42.025Z,26.40
2018-06-20T11:17:10.934Z,26.50
2018-06-20T11:19:39.804Z,26.60
2018-06-20T11:22:08.713Z,26.70
2018-06-20T11:24:37.657Z,26.80
2018-06-20T11:27:06.556Z,26.90
2018-06-20T11:29:35.473Z,26.90
2018-06-20T11:32:04.534Z,27.00
2018-06-20T11:34:33.466Z,27.00
2018-06-20T11:37:02.444Z,27.00
2018-06-20T11:39:31.413Z,27.00
2018-06-20T11:42:00.303Z,27.10
2018-06-20T11:44:29.204Z,27.10
2018-06-20T11:47:03.159Z,27.10
2018-06-20T11:49:32.092Z,27.10
2018-06-20T11:52:01.111Z,27.20
2018-06-20T11:54:30.152Z,27.20
2018-06-20T11:56:59.126Z,27.30
2018-06-20T11:59:33.353Z,27.30
2018-06-20T12:04:41.167Z,27.50
2018-06-20T12:09:49.255Z,27.50
2018-06-20T12:12:23.254Z,27.50
2018-06-20T12:14:57.265Z,27.60
2018-06-20T12:17:31.281Z,27.60
2018-06-20T12:20:05.299Z,27.70
2018-06-20T12:22:39.231Z,27.70
2018-06-20T12:27:47.337Z,27.80
2018-06-20T12:30:21.450Z,27.80
2018-06-20T12:32:55.511Z,27.80
2018-06-20T12:35:29.696Z,28.00
2018-06-20T12:40:37.821Z,28.10
2018-06-20T12:43:13.017Z,28.10
2018-06-20T12:45:42.344Z,28.10
2018-06-20T12:48:11.444Z,28.20
2018-06-20T12:50:40.408Z,28.20
2018-06-20T12:53:09.338Z,28.20
2018-06-20T12:55:38.305Z,28.30
2018-06-20T12:58:07.287Z,28.50
2018-06-20T13:00:36.223Z,28.60
2018-06-20T13:03:05.178Z,28.70
2018-06-20T13:05:34.141Z,28.70
2018-06-20T13:08:03.084Z,28.80
2018-06-20T13:13:00.553Z,28.90
2018-06-20T13:20:26.546Z,29.20
2018-06-20T13:22:55.510Z,29.20
2018-06-20T13:25:24.465Z,29.20
2018-06-20T13:27:53.407Z,29.20
2018-06-20T13:32:56.024Z,29.40
2018-06-20T13:35:30.080Z,29.40
2018-06-20T13:41:36.708Z,29.40
2018-06-20T13:44:07.494Z,29.40
2018-06-20T13:46:41.495Z,29.40
2018-06-20T13:49:10.408Z,29.40
2018-06-20T13:54:07.967Z,29.40
2018-06-20T13:56:36.924Z,29.50
2018-06-20T13:59:05.842Z,29.50
2018-06-20T14:01:34.808Z,29.50
2018-06-20T14:04:03.756Z,29.50
2018-06-20T14:11:29.714Z,29.70
2018-06-20T14:13:58.604Z,29.80
2018-06-20T14:18:56.180Z,29.90
2018-06-20T14:23:58.915Z,30.00
2018-06-20T14:26:27.924Z,29.90
2018-06-20T14:28:56.875Z,29.90
2018-06-20T14:31:30.994Z,29.90
2018-06-20T14:34:05.506Z,29.90
2018-06-20T14:36:39.631Z,30.00
2018-06-20T14:39:14.837Z,30.00
2018-06-20T14:44:17.772Z,30.10
2018-06-20T14:46:46.737Z,30.10
2018-06-20T14:49:15.736Z,30.20
2018-06-20T14:51:44.687Z,30.30
2018-06-20T14:54:13.617Z,30.20
2018-06-20T14:56:42.581Z,30.30
2018-06-20T14:59:11.560Z,30.20
2018-06-20T15:01:40.525Z,30.20
2018-06-20T15:04:09.505Z,30.30
2018-06-20T15:06:38.433Z,30.40
2018-06-20T15:09:08.477Z,30.40
2018-06-20T15:14:06.576Z,30.40
2018-06-20T15:16:40.769Z,30.40
2018-06-20T15:19:09.694Z,30.50
2018-06-20T15:21:38.719Z,30.50
2018-06-20T15:24:07.639Z,30.50
2018-06-20T15:26:41.744Z,30.50
2018-06-20T15:29:15.747Z,30.50
2018-06-20T15:31:49.973Z,30.50
2018-06-20T15:34:24.134Z,30.60
2018-06-20T15:36:58.200Z,30.70
2018-06-20T15:39:27.129Z,30.60
2018-06-20T15:41:56.022Z,30.60
2018-06-20T15:44:25.191Z,30.60
2018-06-20T15:49:22.640Z,30.80
2018-06-20T15:51:51.619Z,30.80
2018-06-20T15:54:20.616Z,30.70
2018-06-20T15:56:49.828Z,30.80
2018-06-20T15:59:18.775Z,30.80
2018-06-20T16:01:47.695Z,30.80
2018-06-20T16:04:16.597Z,30.90
2018-06-20T16:06:45.553Z,30.80
2018-06-20T16:09:19.513Z,30.90
2018-06-20T16:11:48.452Z,30.80
2018-06-20T16:14:17.397Z,30.70
2018-06-20T16:19:20.185Z,30.80
2018-06-20T16:21:54.257Z,30.80
2018-06-20T16:24:28.541Z,30.80
2018-06-20T16:28:06.790Z,30.70
2018-06-20T16:30:37.064Z,30.70
2018-06-20T16:35:35.076Z,30.70
2018-06-20T16:38:04.082Z,30.60
2018-06-20T16:40:32.986Z,30.60
2018-06-20T16:43:01.930Z,30.50
2018-06-20T16:47:59.373Z,30.40
2018-06-20T16:50:28.319Z,30.30
2018-06-20T16:52:57.224Z,30.30
2018-06-20T16:55:26.198Z,30.30
2018-06-20T16:57:55.195Z,30.30
2018-06-20T17:00:24.167Z,30.30
2018-06-20T17:02:53.078Z,30.30
2018-06-20T17:05:22.130Z,30.20
2018-06-20T17:07:51.057Z,30.20
2018-06-20T17:10:21.954Z,30.10
2018-06-20T17:12:56.804Z,30.10
2018-06-20T17:15:30.894Z,29.90
2018-06-20T17:18:05.166Z,29.90
2018-06-20T17:20:39.216Z,29.80
2018-06-20T17:23:13.444Z,29.60
2018-06-20T17:28:10.859Z,29.50
2018-06-20T17:30:39.801Z,29.40
2018-06-20T17:33:08.728Z,29.30
2018-06-20T17:35:37.936Z,29.20
2018-06-20T17:38:06.929Z,29.10
2018-06-20T17:40:36.094Z,29.10
2018-06-20T17:45:33.483Z,28.90
2018-06-20T17:48:02.740Z,28.80
2018-06-20T17:50:31.649Z,28.80
2018-06-20T17:55:29.054Z,28.70
2018-06-20T17:57:57.960Z,28.60
2018-06-20T18:00:26.895Z,28.50
2018-06-20T18:05:29.429Z,28.40
2018-06-20T18:08:03.483Z,28.40
2018-06-20T18:10:37.995Z,28.30
2018-06-20T18:13:06.962Z,28.20
2018-06-20T18:15:41.058Z,28.20
2018-06-20T18:18:09.927Z,28.10
2018-06-20T18:20:38.838Z,28.00
2018-06-20T18:23:07.780Z,28.00
2018-06-20T18:25:36.672Z,28.00
2018-06-20T18:28:05.574Z,27.90
2018-06-20T18:35:31.583Z,27.70
2018-06-20T18:38:00.482Z,27.50
2018-06-20T18:40:29.404Z,27.50
2018-06-20T18:42:58.435Z,27.30
2018-06-20T18:45:27.482Z,27.30
2018-06-20T18:48:01.518Z,27.30
2018-06-20T18:50:30.506Z,27.30
2018-06-20T18:55:27.964Z,27.10
2018-06-20T18:58:02.152Z,26.90
2018-06-20T19:00:36.342Z,26.80
2018-06-20T19:03:54.226Z,26.80
2018-06-20T19:06:28.245Z,26.80
2018-06-20T19:09:03.895Z,26.70
2018-06-20T19:11:32.752Z,26.70
2018-06-20T19:14:01.685Z,26.60
2018-06-20T19:18:59.100Z,26.40
2018-06-20T19:21:28.132Z,26.30
2018-06-20T19:23:57.056Z,26.20
2018-06-20T19:26:26.015Z,26.20
2018-06-20T19:28:54.943Z,26.10
2018-06-20T19:31:23.813Z,26.10
2018-06-20T19:38:49.718Z,25.80
2018-06-20T19:41:18.652Z,25.60
2018-06-20T19:43:52.681Z,25.50
2018-06-20T19:46:21.613Z,25.40
2018-06-20T19:48:50.515Z,25.30
2018-06-20T19:51:19.534Z,25.40
2018-06-20T19:53:48.427Z,25.50
2018-06-20T19:56:17.343Z,25.40
2018-06-20T19:58:46.247Z,25.40
2018-06-20T20:01:15.129Z,25.20
2018-06-20T20:03:44.094Z,25.30
2018-06-20T20:06:13.004Z,25.30
2018-06-20T20:08:41.902Z,25.40
2018-06-20T20:11:10.834Z,25.40
2018-06-20T20:13:39.729Z,25.30
2018-06-20T20:16:08.669Z,25.30
2018-06-20T20:18:37.590Z,25.20
2018-06-20T20:21:06.719Z,25.30
2018-06-20T20:23:35.640Z,25.20
2018-06-20T20:26:04.560Z,25.20
2018-06-20T20:28:33.555Z,25.20
2018-06-20T20:31:02.511Z,25.20
2018-06-20T20:33:31.431Z,25.20
2018-06-20T20:36:00.351Z,25.20
2018-06-20T20:38:29.252Z,25.20
2018-06-20T20:40:58.153Z,25.00
2018-06-20T20:45:55.591Z,25.00
2018-06-20T20:48:24.464Z,24.90
2018-06-20T20:50:53.355Z,24.90
2018-06-20T20:53:22.235Z,25.00
2018-06-20T20:55:51.168Z,24.90
2018-06-20T20:58:20.077Z,24.70
2018-06-20T21:00:49.029Z,24.50
2018-06-20T21:03:17.933Z,24.50
2018-06-20T21:05:46.838Z,24.40
2018-06-20T21:08:15.749Z,24.10
2018-06-20T21:10:44.640Z,24.10
2018-06-20T21:13:13.632Z,24.20
2018-06-20T21:15:42.557Z,24.30
2018-06-20T21:18:11.461Z,24.10
2018-06-20T21:20:47.029Z,23.80
2018-06-20T21:23:15.968Z,23.80
2018-06-20T21:25:44.902Z,23.80
2018-06-20T21:28:13.831Z,23.80
2018-06-20T21:33:11.245Z,23.50
2018-06-20T21:35:40.215Z,23.40
2018-06-20T21:38:09.105Z,23.30
2018-06-20T21:40:38.012Z,23.00
2018-06-20T21:43:06.979Z,23.00
2018-06-20T21:45:35.929Z,22.90
2018-06-20T21:48:04.915Z,22.90
2018-06-20T21:50:33.874Z,22.90
2018-06-20T21:53:02.775Z,22.80
2018-06-20T21:55:31.704Z,22.80
2018-06-20T22:00:30.629Z,22.60
2018-06-20T22:02:59.554Z,22.80
2018-06-20T22:05:28.521Z,22.70
2018-06-20T22:07:57.449Z,22.70
2018-06-20T22:10:26.404Z,22.70
2018-06-20T22:12:55.339Z,22.60
2018-06-20T22:15:24.242Z,22.60
2018-06-20T22:17:53.146Z,22.30
2018-06-20T22:20:22.099Z,22.20
2018-06-20T22:22:51.044Z,22.50
2018-06-20T22:25:20.007Z,22.40
2018-06-20T22:27:48.954Z,22.40
2018-06-20T22:30:17.930Z,22.20
2018-06-20T22:32:46.867Z,22.40
2018-06-20T22:35:15.803Z,22.50
2018-06-20T22:40:13.239Z,22.40
2018-06-20T22:42:42.148Z,22.20
2018-06-20T22:47:39.613Z,22.30
2018-06-20T22:50:08.537Z,22.40
2018-06-20T22:52:37.464Z,22.00
2018-06-20T22:55:06.394Z,22.10
2018-06-20T23:00:03.921Z,21.90
2018-06-20T23:02:32.822Z,21.50
2018-06-20T23:05:01.741Z,21.50
2018-06-20T23:07:30.678Z,21.50
2018-06-20T23:09:59.679Z,21.40
2018-06-20T23:12:28.555Z,21.40
2018-06-20T23:14:57.462Z,21.60
2018-06-20T23:17:26.374Z,21.70
2018-06-20T23:19:55.292Z,21.80
2018-06-20T23:27:21.170Z,21.70
2018-06-20T23:29:56.613Z,21.60
2018-06-20T23:32:25.558Z,21.80
2018-06-20T23:34:54.481Z,21.60
2018-06-20T23:39:51.874Z,21.60
2018-06-20T23:42:20.751Z,21.60
2018-06-20T23:44:49.694Z,21.70
2018-06-20T23:47:18.613Z,21.70
2018-06-20T23:49:47.536Z,21.50
2018-06-20T23:52:16.454Z,21.40
2018-06-20T23:54:45.377Z,21.40
2018-06-20T23:57:14.340Z,21.30
2018-06-20T23:59:43.264Z,21.40
